createdAt,value
2023-05-13T04:46:58.861Z,7.13
2023-05-13T04:52:02.793Z,5.93
2023-05-13T04:57:06.322Z,5.87
2023-05-13T05:02:09.103Z,5.53
2023-05-13T05:07:11.830Z,7.97
2023-05-13T05:12:14.743Z,6.77
2023-05-13T05:17:17.576Z,4.23
2023-05-13T05:22:20.569Z,4.83
2023-05-13T05:27:23.352Z,3.97
2023-05-13T05:32:26.196Z,4.27
2023-05-13T05:37:30.333Z,6.50
2023-05-13T05:42:33.177Z,5.97
2023-05-13T05:47:35.999Z,4.67
2023-05-13T05:52:38.787Z,4.20
2023-05-13T05:57:41.531Z,6.83
2023-05-13T06:02:44.463Z,4.67
2023-05-13T06:07:47.375Z,4.67
2023-05-13T06:12:51.338Z,4.30
2023-05-13T06:17:54.210Z,3.53
2023-05-13T06:22:56.992Z,4.43
2023-05-13T06:28:01.546Z,4.23
2023-05-13T06:33:06.035Z,6.73
2023-05-13T06:38:08.939Z,3.87
2023-05-13T06:43:16.414Z,4.33
2023-05-13T06:48:19.266Z,4.03
2023-05-13T06:53:22.041Z,7.70
2023-05-13T06:58:24.741Z,6.10
2023-05-13T07:03:27.695Z,9.73
2023-05-13T07:08:30.654Z,3.07
2023-05-13T07:13:33.532Z,3.33
2023-05-13T07:18:36.434Z,4.03
2023-05-13T07:23:39.210Z,3.40
2023-05-13T07:28:42.015Z,2.20
2023-05-13T07:33:44.734Z,2.37
2023-05-13T07:38:47.560Z,2.17
2023-05-13T07:43:50.439Z,1.33
2023-05-13T07:48:53.257Z,2.83
2023-05-13T07:53:57.054Z,2.63
2023-05-13T07:58:59.796Z,4.10
2023-05-13T08:04:02.777Z,2.67
2023-05-13T08:09:06.457Z,3.77
2023-05-13T08:14:09.227Z,2.00
2023-05-13T08:19:14.258Z,2.13
2023-05-13T08:24:17.441Z,3.97
2023-05-13T08:29:20.253Z,4.80
2023-05-13T08:34:23.016Z,3.10
2023-05-13T08:39:25.910Z,1.67
2023-05-13T08:44:29.834Z,2.40
2023-05-13T08:49:33.321Z,3.27
2023-05-13T08:54:36.294Z,2.73
2023-05-13T08:59:39.094Z,2.57
2023-05-13T09:04:42.378Z,2.43
2023-05-13T09:09:46.100Z,5.67
2023-05-13T09:14:48.850Z,1.67
2023-05-13T09:19:51.772Z,4.50
2023-05-13T09:24:55.637Z,2.23
2023-05-13T09:30:01.445Z,2.00
2023-05-13T09:35:18.496Z,2.13
2023-05-13T09:40:21.675Z,3.40
2023-05-13T09:45:25.019Z,3.73
2023-05-13T09:50:28.204Z,2.10
2023-05-13T09:55:32.093Z,2.13
2023-05-13T10:00:36.671Z,4.93
2023-05-13T10:05:41.742Z,3.77
2023-05-13T10:10:45.967Z,2.27
2023-05-13T10:15:51.133Z,2.10
2023-05-13T10:20:54.301Z,1.60
2023-05-13T10:26:00.206Z,2.30
2023-05-13T10:31:03.062Z,2.57
2023-05-13T10:36:42.010Z,3.93
2023-05-13T10:42:02.912Z,2.47
2023-05-13T10:47:05.708Z,1.97
2023-05-13T10:52:12.825Z,3.60
2023-05-13T10:57:20.552Z,3.20
2023-05-13T11:02:24.403Z,4.93
2023-05-13T11:07:30.297Z,2.75
2023-05-13T11:12:33.133Z,7.00
2023-05-13T11:17:37.829Z,4.20
2023-05-13T11:22:42.304Z,6.03
2023-05-13T11:27:47.330Z,3.90
2023-05-13T11:32:57.016Z,3.67
2023-05-13T11:38:02.586Z,3.27
2023-05-13T11:43:05.787Z,2.53
2023-05-13T11:48:22.314Z,2.88
2023-05-13T11:53:25.187Z,4.73
2023-05-13T11:58:27.944Z,2.33
2023-05-13T12:03:31.137Z,3.03
2023-05-13T12:08:34.130Z,5.68
2023-05-13T12:13:36.976Z,2.55
2023-05-13T12:18:39.774Z,3.17
2023-05-13T12:23:42.547Z,1.90
2023-05-13T12:28:45.353Z,2.10
2023-05-13T12:33:49.431Z,2.60
2023-05-13T12:39:00.968Z,3.07
2023-05-13T12:44:07.883Z,2.55
2023-05-13T12:49:12.093Z,2.83
2023-05-13T12:54:15.076Z,3.33
2023-05-13T12:59:19.312Z,3.00
2023-05-13T13:04:25.069Z,2.95
2023-05-13T13:09:28.547Z,2.15
2023-05-13T13:14:31.648Z,2.10
2023-05-13T13:19:34.610Z,2.30
2023-05-13T13:24:37.947Z,2.37
2023-05-13T13:29:40.722Z,4.25
2023-05-13T13:34:43.463Z,3.95
2023-05-13T13:39:46.223Z,3.38
2023-05-13T13:44:49.237Z,2.10
2023-05-13T13:49:52.333Z,2.20
2023-05-13T13:54:55.776Z,2.47
2023-05-13T13:59:59.149Z,2.20
2023-05-13T14:05:02.189Z,2.30
2023-05-13T14:10:06.433Z,2.87
2023-05-13T14:15:09.714Z,2.00
2023-05-13T14:20:12.644Z,2.23
2023-05-13T14:25:15.616Z,5.10
2023-05-13T14:30:18.461Z,4.47
2023-05-13T14:35:21.341Z,8.30
2023-05-13T14:40:24.419Z,1.97
2023-05-13T14:45:27.424Z,2.10
2023-05-13T14:50:30.172Z,3.27
2023-05-13T14:55:33.062Z,3.20
2023-05-13T15:00:37.781Z,3.10
2023-05-13T15:05:43.867Z,5.60
2023-05-13T15:10:47.016Z,3.53
2023-05-13T15:15:49.997Z,3.00
2023-05-13T15:20:52.803Z,2.90
2023-05-13T15:25:55.571Z,2.10
2023-05-13T15:30:58.413Z,2.23
2023-05-13T15:36:01.413Z,2.17
2023-05-13T15:41:04.530Z,2.90
2023-05-13T15:46:07.517Z,2.13
2023-05-13T15:51:10.474Z,4.13
2023-05-13T15:56:13.359Z,1.83
2023-05-13T16:01:16.164Z,2.83
2023-05-13T16:06:19.048Z,3.17
2023-05-13T16:11:21.890Z,2.37
2023-05-13T16:16:24.800Z,2.50
2023-05-13T16:21:27.607Z,2.20
2023-05-13T16:26:30.429Z,2.00
2023-05-13T16:31:33.458Z,2.13
2023-05-13T16:36:36.282Z,2.50
2023-05-13T16:41:39.130Z,2.77
2023-05-13T16:46:41.953Z,3.00
2023-05-13T16:51:44.706Z,3.10
2023-05-13T16:56:47.577Z,3.67
2023-05-13T17:01:51.360Z,3.90
2023-05-13T17:06:55.703Z,3.57
2023-05-13T17:11:59.654Z,3.77
2023-05-13T17:17:03.173Z,4.53
2023-05-13T17:22:06.272Z,2.73
2023-05-13T17:27:09.303Z,3.30
2023-05-13T17:32:12.171Z,2.40
2023-05-13T17:37:14.970Z,1.97
2023-05-13T17:42:17.996Z,3.23
2023-05-13T17:47:22.061Z,2.17
2023-05-13T17:52:24.850Z,3.10
2023-05-13T17:57:27.971Z,3.00
2023-05-13T18:02:30.898Z,4.57
2023-05-13T18:07:33.790Z,4.43
2023-05-13T18:12:36.650Z,4.00
2023-05-13T18:17:39.422Z,5.27
2023-05-13T18:22:45.660Z,4.43
2023-05-13T18:27:54.962Z,4.10
2023-05-13T18:33:08.204Z,3.40
2023-05-13T18:38:31.917Z,4.10
2023-05-13T18:43:34.926Z,3.90
2023-05-13T18:48:37.886Z,7.93
2023-05-13T18:53:40.844Z,3.17
2023-05-13T18:58:46.070Z,4.60
2023-05-13T19:03:49.070Z,5.30
2023-05-13T19:08:52.299Z,3.43
2023-05-13T19:13:55.273Z,4.33
2023-05-13T19:18:58.144Z,4.10
2023-05-13T19:24:03.373Z,4.30
2023-05-13T19:29:06.657Z,5.47
2023-05-13T19:34:09.931Z,4.10
2023-05-13T19:39:12.936Z,4.67
2023-05-13T19:44:15.856Z,3.83
2023-05-13T19:49:18.823Z,4.63
2023-05-13T19:54:22.238Z,7.80
2023-05-13T19:59:25.047Z,7.77
2023-05-13T20:04:28.686Z,5.77
2023-05-13T20:09:31.671Z,4.63
2023-05-13T20:14:45.548Z,9.10
2023-05-13T20:19:49.437Z,5.13
2023-05-13T20:24:54.338Z,6.80
2023-05-13T20:30:01.974Z,4.87
2023-05-13T20:35:05.123Z,5.97
2023-05-13T20:40:08.568Z,6.07
2023-05-13T20:45:11.865Z,6.47
2023-05-13T20:50:14.789Z,10.60
2023-05-13T20:55:17.856Z,15.10
2023-05-13T21:00:20.965Z,11.40
2023-05-13T21:05:24.184Z,7.40
2023-05-13T21:10:27.127Z,11.23
2023-05-13T21:15:29.987Z,6.53
2023-05-13T21:20:32.790Z,7.20
2023-05-13T21:25:35.622Z,5.87
2023-05-13T21:30:38.404Z,5.30
2023-05-13T21:35:41.169Z,6.80
2023-05-13T21:40:44.172Z,3.93
2023-05-13T21:45:48.719Z,6.10
2023-05-13T21:50:51.513Z,5.57
2023-05-13T21:55:56.564Z,5.30
2023-05-13T22:01:00.387Z,5.23
2023-05-13T22:06:03.704Z,4.93
2023-05-13T22:11:07.311Z,6.60
2023-05-13T22:16:10.321Z,6.03
2023-05-13T22:21:13.221Z,5.03
2023-05-13T22:26:16.159Z,7.13
2023-05-13T22:31:19.111Z,7.80
2023-05-13T22:36:21.976Z,7.67
2023-05-13T22:41:26.335Z,7.73
2023-05-13T22:46:29.271Z,7.40
2023-05-13T22:51:32.165Z,7.40
2023-05-13T22:56:34.932Z,6.73
2023-05-13T23:01:37.775Z,7.10
2023-05-13T23:06:40.566Z,6.40
2023-05-13T23:11:43.325Z,8.80
2023-05-13T23:16:46.191Z,7.20
2023-05-13T23:21:48.964Z,14.07
2023-05-13T23:26:51.753Z,7.37
2023-05-13T23:31:55.435Z,7.80
2023-05-13T23:36:58.376Z,9.40
2023-05-13T23:42:01.141Z,9.23
